Time;durP1;ratioP1;P1;durP2;ratioP2;P2;SDS_P1;SDS_P2;PMS_P1;PMS_P2;Temp;Humidity;BMP_temperature;BMP_pressure;BME280_temperature;BME280_humidity;BME280_pressure;Samples;Min_cycle;Max_cycle;Signal;HPM_P1;HPM_P2
2021/07/28 00:00:47;;;;;;;;;;;;;;;20.79;63.17;101030.59;5158923;27;810;-56
2021/07/28 00:03:13;;;;;;;;;;;;;;;20.62;62.71;101027.44;5159215;27;807;-56
2021/07/28 00:05:38;;;;;;;;;;;;;;;20.36;60.24;101025.00;5158988;27;1046;-56
2021/07/28 00:08:04;;;;;;;;;;;;;;;20.74;62.49;101021.53;5158063;27;838;-56
2021/07/28 00:10:29;;;;;;;;;;;;;;;21.08;63.04;101023.28;5158664;27;869;-55
2021/07/28 00:12:55;;;;;;;;;;;;;;;21.45;61.42;101016.94;5158654;27;961;-56
2021/07/28 00:15:21;;;;;;;;;;;;;;;21.17;62.05;101010.44;5159036;27;766;-56
2021/07/28 00:17:52;;;;;;;;;;;;;;;20.80;62.20;101012.91;5158777;27;865;-58
2021/07/28 00:25:36;;;;;;;;;;;;;;;21.09;62.14;101017.47;5158830;27;806;-55
2021/07/28 00:28:02;;;;;;;;;;;;;;;21.46;61.14;101013.03;5158151;27;1032;-44
2021/07/28 00:30:27;;;;;;;;;;;;;;;21.69;60.30;101016.03;5158603;27;646;-56
2021/07/28 00:32:53;;;;;;;;;;;;;;;20.74;62.32;101014.06;5158571;27;865;-40
2021/07/28 00:35:18;;;;;;;;;;;;;;;20.34;62.13;101005.13;5158785;27;735;-57
2021/07/28 00:37:45;;;;;;;;;;;;;;;20.06;59.13;101010.38;5158354;27;759;-56
2021/07/28 00:40:14;;;;;;;;;;;;;;;20.10;59.41;101005.09;5158449;27;1967;-57
2021/07/28 00:42:39;;;;;;;;;;;;;;;20.16;57.56;101009.44;5158237;27;1012;-56
2021/07/28 00:45:05;;;;;;;;;;;;;;;20.53;56.55;101019.00;5158422;27;987;-40
2021/07/28 00:47:30;;;;;;;;;;;;;;;20.71;56.82;101011.09;5158275;27;746;-55
2021/07/28 00:49:55;;;;;;;;;;;;;;;20.68;57.76;101009.72;5157971;27;802;-55
2021/07/28 00:52:21;;;;;;;;;;;;;;;20.96;57.64;101010.72;5158473;27;754;-49
2021/07/28 00:54:46;;;;;;;;;;;;;;;21.08;58.12;101015.81;5158430;27;798;-56
2021/07/28 00:57:12;;;;;;;;;;;;;;;21.07;58.50;101016.09;5139362;27;1150;-53
2021/07/28 00:59:37;;;;;;;;;;;;;;;20.52;60.45;101012.66;5139421;27;1917;-56
2021/07/28 01:02:03;;;;;;;;;;;;;;;20.50;61.17;101020.41;5139039;27;831;-41
2021/07/28 01:04:28;;;;;;;;;;;;;;;20.17;59.65;101014.69;5139472;27;1207;-49
2021/07/28 01:06:54;;;;;;;;;;;;;;;20.48;61.50;101014.38;5158153;27;1231;-57
2021/07/28 01:09:19;;;;;;;;;;;;;;;20.83;60.33;101012.28;5158263;27;810;-57
2021/07/28 01:11:45;;;;;;;;;;;;;;;21.06;59.86;101009.78;5158206;27;1012;-56
2021/07/28 01:14:11;;;;;;;;;;;;;;;21.23;59.16;101009.25;5140129;27;827;-56
2021/07/28 01:16:37;;;;;;;;;;;;;;;21.45;58.40;101005.84;5157704;27;762;-42
2021/07/28 01:19:04;;;;;;;;;;;;;;;20.85;60.22;101007.28;5160043;27;1909;-56
2021/07/28 01:21:30;;;;;;;;;;;;;;;20.49;61.65;101006.88;5144157;27;763;-57
2021/07/28 01:23:55;;;;;;;;;;;;;;;20.34;60.53;101005.13;5162448;27;846;-56
2021/07/28 01:26:21;;;;;;;;;;;;;;;20.21;60.24;101003.88;5161907;27;997;-56
2021/07/28 01:28:46;;;;;;;;;;;;;;;20.47;62.26;101004.41;5143568;27;818;-56
2021/07/28 01:31:16;;;;;;;;;;;;;;;21.02;60.13;101006.75;5161995;27;818;-44
2021/07/28 01:33:43;;;;;;;;;;;;;;;20.92;60.42;100997.81;5162018;27;786;-50
2021/07/28 01:36:12;;;;;;;;;;;;;;;20.97;60.16;101003.25;5162039;27;959;-57
2021/07/28 01:38:38;;;;;;;;;;;;;;;21.08;59.72;100999.22;5161663;27;1976;-56
2021/07/28 01:41:04;;;;;;;;;;;;;;;20.59;61.60;100997.66;5161413;27;941;-56
2021/07/28 01:43:29;;;;;;;;;;;;;;;20.45;62.11;101001.13;5162020;27;811;-57
2021/07/28 01:45:55;;;;;;;;;;;;;;;20.04;60.55;100996.06;5161651;27;866;-57
2021/07/28 01:48:21;;;;;;;;;;;;;;;20.51;61.05;101001.91;5161900;27;774;-57
2021/07/28 01:50:46;;;;;;;;;;;;;;;20.53;60.85;100996.91;5161785;27;814;-56
2021/07/28 01:53:12;;;;;;;;;;;;;;;20.73;60.85;100995.81;5161250;27;807;-53
2021/07/28 01:55:38;;;;;;;;;;;;;;;;;;5161757;27;758;-56
2021/07/28 01:58:03;;;;;;;;;;;;;;;21.33;59.92;100991.66;5161746;27;953;-56
2021/07/28 02:00:28;;;;;;;;;;;;;;;20.69;62.18;101000.31;5161205;27;1957;-56
2021/07/28 02:02:55;;;;;;;;;;;;;;;20.87;61.85;101000.63;5161590;27;802;-40
2021/07/28 02:05:20;;;;;;;;;;;;;;;20.59;59.94;101001.22;5161470;27;1211;-56
2021/07/28 02:07:46;;;;;;;;;;;;;;;20.81;62.50;101003.47;5161365;27;798;-40
2021/07/28 02:10:11;;;;;;;;;;;;;;;21.14;61.75;101006.34;5161574;27;782;-55
2021/07/28 02:12:37;;;;;;;;;;;;;;;21.51;60.38;100999.09;5161177;27;1012;-40
2021/07/28 02:15:02;;;;;;;;;;;;;;;21.13;61.67;100992.81;5161274;27;775;-56
2021/07/28 02:17:28;;;;;;;;;;;;;;;20.78;63.07;100993.00;5161372;27;778;-56
2021/07/28 02:19:53;;;;;;;;;;;;;;;20.66;61.44;100996.19;5160572;27;1974;-55
2021/07/28 02:22:19;;;;;;;;;;;;;;;20.39;60.14;100991.25;5161205;27;774;-55
2021/07/28 02:24:44;;;;;;;;;;;;;;;20.94;62.06;100987.28;5161227;27;786;-56
2021/07/28 02:27:09;;;;;;;;;;;;;;;21.30;62.35;100997.81;5160856;27;961;-55
2021/07/28 02:29:35;;;;;;;;;;;;;;;21.66;61.10;100994.50;5160605;27;746;-43
2021/07/28 02:32:01;;;;;;;;;;;;;;;21.45;61.33;100994.78;5160385;27;814;-55
2021/07/28 02:34:27;;;;;;;;;;;;;;;20.90;63.35;101000.03;5160973;27;802;-57
2021/07/28 02:36:52;;;;;;;;;;;;;;;20.75;62.89;100996.38;5161182;27;806;-54
2021/07/28 02:39:17;;;;;;;;;;;;;;;20.37;60.67;100999.03;5160687;27;1909;-55
2021/07/28 02:41:43;;;;;;;;;;;;;;;21.01;62.12;101002.38;5160426;27;1009;-56
2021/07/28 02:44:08;;;;;;;;;;;;;;;21.22;62.82;100991.00;5160814;27;822;-40
2021/07/28 02:46:34;;;;;;;;;;;;;;;21.58;61.27;100993.22;5160470;27;750;-57
2021/07/28 02:48:59;;;;;;;;;;;;;;;21.70;60.75;100990.00;5160276;27;822;-57
2021/07/28 02:51:24;;;;;;;;;;;;;;;20.74;62.70;100991.97;5160520;27;739;-56
2021/07/28 02:53:50;;;;;;;;;;;;;;;20.55;63.74;100988.31;5160646;27;499;-57
2021/07/28 02:56:15;;;;;;;;;;;;;;;20.37;61.20;100987.13;5160295;27;1020;-57
2021/07/28 02:58:41;;;;;;;;;;;;;;;20.63;61.19;100980.19;5160107;27;1905;-57
2021/07/28 03:01:06;;;;;;;;;;;;;;;21.11;62.51;100979.28;5160274;27;794;-56
2021/07/28 03:03:32;;;;;;;;;;;;;;;21.60;61.37;100979.09;5160405;27;753;-49
2021/07/28 03:05:57;;;;;;;;;;;;;;;21.83;60.24;100980.88;5160379;27;1140;-57
2021/07/28 03:08:22;;;;;;;;;;;;;;;21.11;62.51;100978.44;5160523;27;771;-56
2021/07/28 03:10:48;;;;;;;;;;;;;;;20.73;63.93;100979.25;5160938;27;1543;-55
2021/07/28 03:13:13;;;;;;;;;;;;;;;20.38;62.72;100974.97;5177405;27;1187;-56
2021/07/28 03:15:39;;;;;;;;;;;;;;;20.28;60.99;100978.69;5167664;27;802;-40
2021/07/28 03:18:04;;;;;;;;;;;;;;;20.81;63.21;100975.00;5159971;27;925;-53
2021/07/28 03:20:30;;;;;;;;;;;;;;;21.28;62.70;100975.97;5159980;27;1913;-40
2021/07/28 03:22:55;;;;;;;;;;;;;;;21.50;61.30;100978.13;5160410;27;832;-54
2021/07/28 03:25:20;;;;;;;;;;;;;;;20.95;61.52;100972.34;5159687;27;505;-40
2021/07/28 03:27:46;;;;;;;;;;;;;;;20.48;61.18;100972.94;5141315;27;1376;-49
2021/07/28 03:30:11;;;;;;;;;;;;;;;20.36;58.80;100969.75;5159534;27;826;-42
2021/07/28 03:32:37;;;;;;;;;;;;;;;20.33;57.63;100967.59;5159868;27;771;-41
2021/07/28 03:35:02;;;;;;;;;;;;;;;20.30;56.54;100962.63;5159774;27;766;-56
2021/07/28 03:37:28;;;;;;;;;;;;;;;20.40;56.54;100976.34;5159408;27;778;-56
2021/07/28 03:40:00;;;;;;;;;;;;;;;20.70;56.52;100968.78;5159383;27;1917;-55
2021/07/28 03:42:28;;;;;;;;;;;;;;;20.83;57.46;100979.13;5158566;27;1017;-45
2021/07/28 03:44:54;;;;;;;;;;;;;;;21.07;57.51;100977.41;5159432;27;850;-53
2021/07/28 03:47:19;;;;;;;;;;;;;;;21.03;58.09;100978.00;5173728;27;1496;-42
2021/07/28 03:49:45;;;;;;;;;;;;;;;21.02;58.60;100975.53;5178685;27;775;-53
2021/07/28 03:52:10;;;;;;;;;;;;;;;20.46;60.91;100977.09;5159440;27;778;-54
2021/07/28 03:54:35;;;;;;;;;;;;;;;20.49;61.15;100974.53;5164225;27;1445;-54
2021/07/28 03:57:01;;;;;;;;;;;;;;;20.08;59.94;100972.28;5163067;27;882;-54
2021/07/28 03:59:26;;;;;;;;;;;;;;;20.34;61.77;100975.56;5158603;27;1941;-50
2021/07/28 04:01:52;;;;;;;;;;;;;;;20.45;61.87;100973.50;5158849;27;879;-54
2021/07/28 04:04:17;;;;;;;;;;;;;;;20.79;60.67;100969.78;5159092;27;758;-51
2021/07/28 04:06:43;;;;;;;;;;;;;;;21.04;59.99;100967.75;5158833;27;1034;-52
2021/07/28 04:09:08;;;;;;;;;;;;;;;21.25;59.29;100965.53;5159188;27;910;-41
2021/07/28 04:11:34;;;;;;;;;;;;;;;20.87;60.36;100978.53;5158474;27;929;-47
2021/07/28 04:13:59;;;;;;;;;;;;;;;20.60;61.75;100974.44;5158849;27;743;-41
2021/07/28 04:16:24;;;;;;;;;;;;;;;20.42;60.66;100974.09;5158947;27;850;-41
2021/07/28 04:18:50;;;;;;;;;;;;;;;20.17;61.37;100966.94;5158678;27;2236;-40
2021/07/28 04:21:15;;;;;;;;;;;;;;;20.62;62.15;100967.50;5158600;27;739;-41
2021/07/28 04:23:41;;;;;;;;;;;;;;;21.26;59.99;100969.09;5158969;27;805;-51
2021/07/28 04:26:06;;;;;;;;;;;;;;;21.47;59.12;100975.94;5158680;27;1008;-55
2021/07/28 04:28:32;;;;;;;;;;;;;;;21.00;60.51;100978.59;5158581;27;794;-43
2021/07/28 04:30:57;;;;;;;;;;;;;;;20.61;62.02;100973.31;5158616;27;763;-42
2021/07/28 04:33:22;;;;;;;;;;;;;;;20.38;62.02;100973.03;5158773;27;741;-46
2021/07/28 04:35:48;;;;;;;;;;;;;;;20.13;60.71;100968.63;5158602;27;778;-40
2021/07/28 04:38:13;;;;;;;;;;;;;;;20.68;62.21;100971.88;5158506;27;861;-48
2021/07/28 04:40:39;;;;;;;;;;;;;;;21.14;60.31;100967.63;5158152;27;1906;-53
2021/07/28 04:43:04;;;;;;;;;;;;;;;21.14;59.32;100967.63;5158220;27;1012;-48
2021/07/28 04:45:29;;;;;;;;;;;;;;;21.20;59.29;100965.59;5158813;27;782;-39
2021/07/28 04:47:55;;;;;;;;;;;;;;;21.31;59.25;100966.25;5158246;27;782;-55
2021/07/28 04:50:20;;;;;;;;;;;;;;;21.44;58.93;100964.66;5158311;27;828;-41
2021/07/28 04:52:46;;;;;;;;;;;;;;;20.73;61.39;100968.19;5139734;27;1140;-50
2021/07/28 04:55:11;;;;;;;;;;;;;;;20.64;61.99;100973.53;5157884;27;850;-42
2021/07/28 04:57:37;;;;;;;;;;;;;;;20.21;60.66;100970.75;5158086;27;1000;-48
2021/07/28 05:00:03;;;;;;;;;;;;;;;20.25;61.94;100968.22;5158587;27;1976;-56
2021/07/28 05:02:28;;;;;;;;;;;;;;;21.16;60.67;100970.91;5157690;27;766;-56
2021/07/28 05:04:54;;;;;;;;;;;;;;;21.38;59.66;100961.16;5158164;27;1655;-47
2021/07/28 05:07:19;;;;;;;;;;;;;;;21.66;59.01;100966.81;5158078;27;782;-40
2021/07/28 05:09:44;;;;;;;;;;;;;;;20.82;61.43;100974.72;5157980;27;754;-40
2021/07/28 05:12:10;;;;;;;;;;;;;;;20.67;62.01;100972.13;5157971;27;964;-41
2021/07/28 05:14:35;;;;;;;;;;;;;;;20.34;61.07;100966.44;5158125;27;814;-59
2021/07/28 05:17:01;;;;;;;;;;;;;;;20.55;61.57;100966.22;5157921;27;782;-41
2021/07/28 05:19:26;;;;;;;;;;;;;;;21.15;61.13;100962.91;5157881;27;1909;-47
2021/07/28 05:21:52;;;;;;;;;;;;;;;21.29;60.26;100968.50;5158378;27;771;-45
2021/07/28 05:24:17;;;;;;;;;;;;;;;21.72;59.01;100971.13;5157327;27;881;-46
2021/07/28 05:26:42;;;;;;;;;;;;;;;20.97;61.33;100967.31;5157821;27;1004;-54
2021/07/28 05:29:09;;;;;;;;;;;;;;;20.65;62.48;100966.06;5158613;27;767;-40
2021/07/28 05:31:35;;;;;;;;;;;;;;;20.35;61.78;100976.38;5157519;27;766;-56
2021/07/28 05:34:00;;;;;;;;;;;;;;;19.94;60.60;100963.88;5157790;27;766;-44
2021/07/28 05:36:26;;;;;;;;;;;;;;;20.73;62.26;100967.38;5157747;27;775;-53
2021/07/28 05:38:51;;;;;;;;;;;;;;;21.16;61.59;100967.31;5157790;27;1902;-52
2021/07/28 05:41:16;;;;;;;;;;;;;;;21.25;61.06;100962.75;5157529;27;969;-42
2021/07/28 05:43:43;;;;;;;;;;;;;;;21.00;60.50;100961.22;5157620;27;889;-42
2021/07/28 05:46:09;;;;;;;;;;;;;;;20.98;61.87;100958.72;5157473;27;822;-52
2021/07/28 05:48:34;;;;;;;;;;;;;;;20.79;62.23;100955.97;5157868;27;835;-41
2021/07/28 05:51:00;;;;;;;;;;;;;;;20.49;59.21;100952.44;5157869;27;750;-53
2021/07/28 05:53:25;;;;;;;;;;;;;;;20.83;59.93;100953.41;5157515;27;757;-55
2021/07/28 05:55:51;;;;;;;;;;;;;;;21.69;61.20;100957.91;5158095;27;750;-54
2021/07/28 05:58:16;;;;;;;;;;;;;;;21.84;62.18;100957.63;5157085;27;957;-53
2021/07/28 06:00:41;;;;;;;;;;;;;;;22.18;61.50;100950.88;5157661;27;1914;-47
2021/07/28 06:03:07;;;;;;;;;;;;;;;21.53;63.67;100955.41;5158102;27;941;-55
2021/07/28 06:05:32;;;;;;;;;;;;;;;21.43;63.77;100952.75;5158880;27;1172;-51
2021/07/28 06:07:58;;;;;;;;;;;;;;;20.65;60.59;100966.06;5161396;27;949;-41
2021/07/28 06:10:23;;;;;;;;;;;;;;;19.80;60.17;100958.22;5161329;27;802;-55
2021/07/28 06:12:48;;;;;;;;;;;;;;;19.99;59.04;100954.69;5160830;27;1012;-42
2021/07/28 06:15:14;;;;;;;;;;;;;;;20.00;56.15;100954.41;5161589;27;834;-55
2021/07/28 06:17:39;;;;;;;;;;;;;;;20.17;55.23;100951.19;5161702;27;819;-40
2021/07/28 06:20:05;;;;;;;;;;;;;;;20.21;56.03;100945.91;5160941;27;1972;-56
2021/07/28 06:22:30;;;;;;;;;;;;;;;20.42;56.96;100957.53;5160941;27;869;-41
2021/07/28 06:24:56;;;;;;;;;;;;;;;20.75;57.19;100952.16;5160924;27;823;-59
2021/07/28 06:27:21;;;;;;;;;;;;;;;20.90;57.79;100953.06;5160870;27;1015;-41
2021/07/28 06:29:47;;;;;;;;;;;;;;;20.95;58.26;100950.22;5161165;27;823;-41
2021/07/28 06:32:12;;;;;;;;;;;;;;;20.78;59.18;100954.31;5161246;27;937;-45
2021/07/28 06:34:38;;;;;;;;;;;;;;;20.58;60.40;100946.28;5160827;27;798;-56
2021/07/28 06:37:03;;;;;;;;;;;;;;;20.36;59.19;100944.91;5160893;27;510;-57
2021/07/28 06:39:29;;;;;;;;;;;;;;;20.07;59.64;100945.78;5160799;27;1980;-56
2021/07/28 06:41:54;;;;;;;;;;;;;;;20.86;60.55;100939.03;5160578;27;949;-55
2021/07/28 06:44:19;;;;;;;;;;;;;;;21.15;61.53;100940.78;5160626;27;739;-55
2021/07/28 06:46:45;;;;;;;;;;;;;;;21.56;61.57;100937.38;5160765;27;825;-41
2021/07/28 06:49:10;;;;;;;;;;;;;;;21.12;64.22;100944.16;5160519;27;751;-41
2021/07/28 06:51:36;;;;;;;;;;;;;;;21.27;64.40;100943.09;5160597;27;795;-40
2021/07/28 06:54:02;;;;;;;;;;;;;;;20.83;62.29;100945.97;5160472;27;830;-41
2021/07/28 06:56:28;;;;;;;;;;;;;;;20.12;60.09;100942.97;5160354;27;1012;-56
2021/07/28 06:58:54;;;;;;;;;;;;;;;20.33;61.92;100943.53;5160469;27;1917;-57
2021/07/28 07:01:19;;;;;;;;;;;;;;;20.34;61.63;100942.44;5160392;27;838;-54
2021/07/28 07:03:45;;;;;;;;;;;;;;;20.40;59.55;100945.97;5159749;27;802;-41
2021/07/28 07:06:10;;;;;;;;;;;;;;;20.36;57.60;100944.91;5160514;27;1169;-40
2021/07/28 07:08:35;;;;;;;;;;;;;;;20.40;56.53;100945.97;5160289;27;810;-61
2021/07/28 07:11:01;;;;;;;;;;;;;;;20.28;56.21;100953.84;5159728;27;929;-46
2021/07/28 07:13:26;;;;;;;;;;;;;;;20.66;55.83;100953.91;5160375;27;790;-41
2021/07/28 07:15:52;;;;;;;;;;;;;;;20.48;57.44;100950.00;5159793;27;767;-43
2021/07/28 07:18:17;;;;;;;;;;;;;;;20.62;57.99;100956.44;5159910;27;798;-41
2021/07/28 07:20:43;;;;;;;;;;;;;;;20.86;58.12;100958.38;5159934;27;1906;-54
2021/07/28 07:23:08;;;;;;;;;;;;;;;20.59;59.55;100956.22;5159880;27;755;-50
2021/07/28 07:25:34;;;;;;;;;;;;;;;20.51;60.25;100955.75;5160111;27;733;-53
2021/07/28 07:28:01;;;;;;;;;;;;;;;20.26;59.56;100942.25;5159826;27;973;-56
2021/07/28 07:30:27;;;;;;;;;;;;;;;20.05;61.14;100956.31;5159689;27;742;-56
2021/07/28 07:35:36;;;;;;;;;;;;;;;20.80;60.32;100957.63;5159635;27;790;-42
2021/07/28 07:38:02;;;;;;;;;;;;;;;21.08;59.47;100954.16;5159669;27;814;-46
2021/07/28 07:40:27;;;;;;;;;;;;;;;20.66;60.89;100951.97;5159320;27;1909;-58
2021/07/28 07:42:53;;;;;;;;;;;;;;;20.64;60.94;100945.09;5159058;27;933;-56
2021/07/28 07:45:19;;;;;;;;;;;;;;;20.14;59.79;100945.44;5159450;27;826;-57
2021/07/28 07:47:44;;;;;;;;;;;;;;;20.39;61.80;100946.25;5159427;27;884;-40
2021/07/28 07:50:10;;;;;;;;;;;;;;;20.63;61.47;100951.75;5159490;27;738;-41
2021/07/28 07:52:35;;;;;;;;;;;;;;;20.84;60.69;100941.25;5159249;27;797;-41
2021/07/28 07:55:01;;;;;;;;;;;;;;;21.01;60.06;100944.31;5159192;27;747;-51
2021/07/28 07:57:26;;;;;;;;;;;;;;;20.83;60.54;100945.97;5159349;27;976;-55
2021/07/28 07:59:52;;;;;;;;;;;;;;;20.78;60.86;100947.97;5159081;27;1909;-48
2021/07/28 08:02:17;;;;;;;;;;;;;;;20.31;60.04;100940.28;5159111;27;751;-51
2021/07/28 08:04:42;;;;;;;;;;;;;;;20.34;60.98;100947.97;5157165;27;1022;-54
2021/07/28 08:07:08;;;;;;;;;;;;;;;20.81;61.40;100950.94;5158737;27;755;-57
2021/07/28 08:09:33;;;;;;;;;;;;;;;21.08;60.16;100946.69;5159363;27;739;-54
2021/07/28 08:11:59;;;;;;;;;;;;;;;21.17;59.88;100939.38;5158612;27;993;-57
2021/07/28 08:14:24;;;;;;;;;;;;;;;20.62;61.40;100945.41;5159349;27;765;-56
2021/07/28 08:16:50;;;;;;;;;;;;;;;20.60;61.72;100944.03;5159442;27;771;-56
2021/07/28 08:19:15;;;;;;;;;;;;;;;20.17;60.09;100939.31;5158869;27;1970;-58
2021/07/28 08:21:40;;;;;;;;;;;;;;;20.48;61.78;100938.94;5158482;27;747;-58
2021/07/28 08:24:06;;;;;;;;;;;;;;;20.81;61.39;100941.84;5158785;27;821;-57
2021/07/28 08:26:31;;;;;;;;;;;;;;;21.12;60.08;100942.19;5158512;27;1013;-40
2021/07/28 08:28:57;;;;;;;;;;;;;;;21.27;59.43;100940.34;5158496;27;771;-39
2021/07/28 08:31:22;;;;;;;;;;;;;;;20.74;60.93;100939.44;5158497;27;763;-52
2021/07/28 08:33:48;;;;;;;;;;;;;;;20.70;61.40;100935.63;5158760;27;766;-40
2021/07/28 08:36:13;;;;;;;;;;;;;;;20.27;60.40;100935.63;5158330;27;766;-54
2021/07/28 08:38:38;;;;;;;;;;;;;;;20.34;60.40;100936.06;5158365;27;1980;-56
2021/07/28 08:41:04;;;;;;;;;;;;;;;20.81;61.38;100934.38;5158596;27;953;-43
2021/07/28 08:43:36;;;;;;;;;;;;;;;20.90;60.94;100944.75;5158410;27;730;-55
2021/07/28 08:46:02;;;;;;;;;;;;;;;21.15;60.16;100933.31;5157841;27;723;-56
2021/07/28 08:48:30;;;;;;;;;;;;;;;20.97;60.53;100934.97;5158668;27;802;-58
2021/07/28 08:50:56;;;;;;;;;;;;;;;20.80;61.15;100929.16;5158165;27;759;-56
2021/07/28 08:53:24;;;;;;;;;;;;;;;20.52;60.25;100929.78;5158536;27;815;-41
2021/07/28 08:55:51;;;;;;;;;;;;;;;20.29;58.49;100936.16;5139341;27;836;-59
2021/07/28 08:58:16;;;;;;;;;;;;;;;20.93;60.87;100936.69;5157879;27;1008;-57
2021/07/28 09:00:45;;;;;;;;;;;;;;;21.02;60.90;100939.59;5139462;27;1984;-43
2021/07/28 09:03:11;;;;;;;;;;;;;;;21.08;60.38;100932.84;5158415;27;862;-58
2021/07/28 09:05:39;;;;;;;;;;;;;;;21.03;60.38;100931.00;5158000;27;998;-41
2021/07/28 09:08:06;;;;;;;;;;;;;;;20.77;61.44;100927.78;5158848;27;835;-59
2021/07/28 09:10:31;;;;;;;;;;;;;;;20.79;61.12;100930.25;5158031;27;806;-57
2021/07/28 09:12:56;;;;;;;;;;;;;;;20.32;59.04;100924.50;5157738;27;958;-41
2021/07/28 09:15:22;;;;;;;;;;;;;;;20.71;61.63;100929.00;5156956;27;1085;-42
2021/07/28 09:17:49;;;;;;;;;;;;;;;21.11;60.49;100926.75;5158142;27;759;-56
2021/07/28 09:20:22;;;;;;;;;;;;;;;21.08;60.51;100924.56;5157106;27;1971;-56
2021/07/28 09:22:47;;;;;;;;;;;;;;;21.02;60.75;100923.00;5158162;27;872;-56
2021/07/28 09:25:18;;;;;;;;;;;;;;;20.98;60.65;100920.00;5157565;27;854;-43
2021/07/28 09:27:44;;;;;;;;;;;;;;;20.36;59.83;100922.81;5157694;27;1000;-45
2021/07/28 09:30:10;;;;;;;;;;;;;;;20.12;60.86;100918.13;5158113;27;499;-58
2021/07/28 09:32:55;;;;;;;;;;;;;;;20.75;62.09;100915.38;5157857;27;806;-56
2021/07/28 09:35:39;;;;;;;;;;;;;;;21.20;60.49;100908.34;5139650;27;822;-56
2021/07/28 09:38:04;;;;;;;;;;;;;;;21.44;59.55;100915.69;5158026;27;794;-50
2021/07/28 09:40:29;;;;;;;;;;;;;;;20.93;61.11;100924.81;5159060;27;1968;-40
2021/07/28 09:43:02;;;;;;;;;;;;;;;20.84;61.53;100919.13;5162054;27;1004;-56
2021/07/28 09:45:28;;;;;;;;;;;;;;;20.46;60.57;100919.09;5162568;27;719;-55
2021/07/28 09:47:56;;;;;;;;;;;;;;;20.37;58.88;100916.19;5161741;27;781;-55
2021/07/28 09:50:22;;;;;;;;;;;;;;;20.65;62.13;100916.31;5161718;27;815;-40
2021/07/28 09:52:51;;;;;;;;;;;;;;;20.92;61.73;100914.91;5161802;27;838;-40
2021/07/28 09:55:24;;;;;;;;;;;;;;;21.01;61.20;100913.06;5162715;27;754;-57
2021/07/28 09:57:53;;;;;;;;;;;;;;;20.92;61.29;100914.91;5161271;27;886;-41
2021/07/28 10:00:18;;;;;;;;;;;;;;;20.81;61.66;100903.16;5160620;27;1901;-52
2021/07/28 10:02:44;;;;;;;;;;;;;;;20.75;60.36;100909.88;5161563;27;778;-56
2021/07/28 10:05:10;;;;;;;;;;;;;;;20.22;59.12;100900.63;5143164;27;1027;-56
2021/07/28 10:07:36;;;;;;;;;;;;;;;20.63;62.22;100902.00;5161199;27;790;-55
2021/07/28 10:10:09;;;;;;;;;;;;;;;21.15;61.14;100902.06;5143309;27;774;-45
2021/07/28 10:12:35;;;;;;;;;;;;;;;21.36;60.38;100902.53;5132206;27;972;-56
2021/07/28 10:15:00;;;;;;;;;;;;;;;21.08;61.01;100901.63;5119968;28;803;-61
2021/07/28 10:17:26;;;;;;;;;;;;;;;20.87;61.90;100901.94;5101007;28;1082;-53
2021/07/28 10:19:52;;;;;;;;;;;;;;;20.64;61.01;100903.66;5119986;28;1973;-41
2021/07/28 10:22:17;;;;;;;;;;;;;;;20.42;58.79;100907.81;5120300;28;791;-42
2021/07/28 10:24:43;;;;;;;;;;;;;;;20.68;62.12;100904.75;5119885;28;819;-42
2021/07/28 10:27:11;;;;;;;;;;;;;;;20.91;62.34;100902.19;5111662;27;962;-43
2021/07/28 10:29:43;;;;;;;;;;;;;;;21.18;61.08;100895.94;5121538;27;783;-53
2021/07/28 10:32:09;;;;;;;;;;;;;;;21.04;61.41;100895.88;5140394;27;775;-39
2021/07/28 10:34:35;;;;;;;;;;;;;;;21.32;61.02;100898.75;5122041;27;1276;-59
2021/07/28 10:37:02;;;;;;;;;;;;;;;20.26;60.06;100887.84;5140169;27;854;-61
2021/07/28 10:39:37;;;;;;;;;;;;;;;20.79;61.14;100884.13;5140205;27;1978;-61
2021/07/28 10:42:03;;;;;;;;;;;;;;;21.14;61.68;100881.91;5139703;27;1013;-51
2021/07/28 10:44:28;;;;;;;;;;;;;;;21.17;61.53;100884.06;5139991;27;743;-60
2021/07/28 10:46:54;;;;;;;;;;;;;;;21.39;60.36;100874.28;5121325;27;883;-41
2021/07/28 10:49:35;;;;;;;;;;;;;;;21.40;60.24;100878.69;5140164;27;815;-41
2021/07/28 10:52:00;;;;;;;;;;;;;;;21.47;59.86;100883.81;5139643;27;822;-61
2021/07/28 10:54:45;;;;;;;;;;;;;;;20.87;61.67;100882.59;5121768;27;779;-48
2021/07/28 10:57:30;;;;;;;;;;;;;;;20.79;61.95;100878.59;5139316;27;954;-58
2021/07/28 10:59:55;;;;;;;;;;;;;;;20.28;59.19;100871.00;5139122;27;1910;-41
2021/07/28 11:02:21;;;;;;;;;;;;;;;20.71;62.21;100881.22;5139743;27;794;-41
2021/07/28 11:04:46;;;;;;;;;;;;;;;21.51;62.10;100876.56;5140400;27;1156;-62
2021/07/28 11:07:12;;;;;;;;;;;;;;;21.99;61.71;100872.63;5141442;27;1313;-50
2021/07/28 11:09:37;;;;;;;;;;;;;;;21.44;64.21;100878.91;5160435;27;786;-47
2021/07/28 11:12:03;;;;;;;;;;;;;;;21.39;65.16;100867.94;5160320;27;973;-59
2021/07/28 11:14:28;;;;;;;;;;;;;;;21.12;62.65;100864.78;5160623;27;770;-41
2021/07/28 11:16:54;;;;;;;;;;;;;;;20.80;61.01;100874.72;5160301;27;793;-43
2021/07/28 11:19:20;;;;;;;;;;;;;;;20.60;60.91;100866.69;5160021;27;1905;-45
2021/07/28 11:21:46;;;;;;;;;;;;;;;20.78;64.92;100868.66;5159869;27;754;-63
2021/07/28 11:24:11;;;;;;;;;;;;;;;20.97;67.34;100865.03;5160248;27;790;-60
2021/07/28 11:26:43;;;;;;;;;;;;;;;21.12;68.78;100864.78;5159482;27;1016;-57
2021/07/28 11:29:09;;;;;;;;;;;;;;;21.32;68.72;100862.78;5160174;27;806;-53
2021/07/28 11:31:38;;;;;;;;;;;;;;;21.61;67.91;100858.97;5160068;27;774;-43
2021/07/28 11:34:10;;;;;;;;;;;;;;;21.76;67.18;100860.66;5159860;27;796;-43
2021/07/28 11:36:39;;;;;;;;;;;;;;;21.78;66.57;100864.72;5160140;27;791;-58
2021/07/28 11:39:06;;;;;;;;;;;;;;;21.68;66.75;100860.19;5159584;27;1967;-63
2021/07/28 11:41:31;;;;;;;;;;;;;;;21.46;64.25;100855.34;5159616;27;962;-60
2021/07/28 11:43:57;;;;;;;;;;;;;;;21.29;60.82;100857.88;5159767;27;818;-60
2021/07/28 11:46:22;;;;;;;;;;;;;;;21.10;58.42;100861.50;5159364;27;774;-51
2021/07/28 11:48:50;;;;;;;;;;;;;;;20.76;56.33;100854.31;5159325;27;810;-42
2021/07/28 11:51:32;;;;;;;;;;;;;;;20.68;54.07;100860.53;5159816;27;796;-41
2021/07/28 11:54:11;;;;;;;;;;;;;;;20.41;52.65;100842.66;5159468;27;810;-40
2021/07/28 11:56:37;;;;;;;;;;;;;;;20.42;52.94;100849.81;5159121;27;957;-57
2021/07/28 11:59:02;;;;;;;;;;;;;;;20.67;56.47;100845.03;5158960;27;1905;-51
2021/07/28 12:01:29;;;;;;;;;;;;;;;20.62;60.58;100845.09;5159226;27;770;-42
2021/07/28 12:03:57;;;;;;;;;;;;;;;20.96;62.98;100839.34;5158424;27;742;-41
2021/07/28 12:06:34;;;;;;;;;;;;;;;21.12;64.49;100839.91;5159147;27;1045;-45
2021/07/28 12:09:08;;;;;;;;;;;;;;;21.00;66.44;100843.16;5158895;27;807;-60
2021/07/28 12:12:06;;;;;;;;;;;;;;;21.22;66.79;100841.66;5158493;27;1024;-43
2021/07/28 12:14:41;;;;;;;;;;;;;;;21.48;66.61;100828.19;5113431;27;1291;-42
2021/07/28 12:17:13;;;;;;;;;;;;;;;21.48;67.05;100835.69;5158855;27;746;-60
2021/07/28 12:19:39;;;;;;;;;;;;;;;21.77;65.32;100834.59;5158721;27;1897;-47
2021/07/28 12:22:04;;;;;;;;;;;;;;;20.84;63.85;100825.97;5158999;27;754;-60
2021/07/28 12:24:31;;;;;;;;;;;;;;;20.82;60.60;100828.25;5157640;27;1094;-47
2021/07/28 12:26:58;;;;;;;;;;;;;;;20.58;57.67;100827.47;5158839;27;950;-61
2021/07/28 12:29:37;;;;;;;;;;;;;;;20.40;55.47;100827.19;5158533;27;814;-58
2021/07/28 12:32:16;;;;;;;;;;;;;;;20.22;54.00;100816.97;5158999;27;850;-48
2021/07/28 12:34:41;;;;;;;;;;;;;;;20.11;52.45;100827.31;5158804;27;810;-58
2021/07/28 12:37:16;;;;;;;;;;;;;;;19.84;51.39;100823.25;5158688;27;714;-58
2021/07/28 12:39:42;;;;;;;;;;;;;;;19.76;50.89;100830.19;5158251;27;1913;-39
2021/07/28 12:42:07;;;;;;;;;;;;;;;19.85;52.70;100832.34;5158383;27;1020;-40
2021/07/28 12:44:33;;;;;;;;;;;;;;;20.10;57.67;100829.25;5158510;27;802;-46
2021/07/28 12:46:58;;;;;;;;;;;;;;;20.39;61.12;100836.59;5158786;27;768;-41
2021/07/28 12:49:23;;;;;;;;;;;;;;;20.50;63.48;100834.50;5158586;27;810;-42
2021/07/28 12:51:49;;;;;;;;;;;;;;;20.48;65.52;100833.97;5158398;27;845;-61
2021/07/28 12:54:14;;;;;;;;;;;;;;;20.68;66.48;100835.66;5158506;27;767;-41
2021/07/28 12:56:40;;;;;;;;;;;;;;;20.84;66.90;100825.97;5158164;27;1005;-40
2021/07/28 12:59:07;;;;;;;;;;;;;;;20.97;67.36;100827.19;5157873;27;1962;-38